Time;durP1;ratioP1;P1;durP2;ratioP2;P2;SDS_P1;SDS_P2;PMS_P1;PMS_P2;Temp;Humidity;BMP_temperature;BMP_pressure;BME280_temperature;BME280_humidity;BME280_pressure;Samples;Min_cycle;Max_cycle;Signal;HPM_P1;HPM_P2
2022/06/12 00:01:21;;;;;;;;;;;;;;;-149.78;100.00;50095.94;5097494;28;19931;-73
2022/06/12 00:03:48;;;;;;;;;;;;;;;-149.78;100.00;50123.34;5098853;28;19998;-73
2022/06/12 00:06:15;;;;;;;;;;;;;;;-149.78;100.00;50111.59;5095333;28;20026;-73
2022/06/12 00:08:40;;;;;;;;;;;;;;;-149.78;100.00;50099.88;5096267;28;19934;-73
2022/06/12 00:11:07;;;;;;;;;;;;;;;-149.78;100.00;50115.50;5097990;28;19931;-73
2022/06/12 00:13:36;;;;;;;;;;;;;;;-149.78;100.00;50107.69;5098042;28;20014;-73
2022/06/12 00:16:02;;;;;;;;;;;;;;;-149.78;100.00;50056.84;5096376;28;19920;-73
2022/06/12 00:18:27;;;;;;;;;;;;;;;-149.78;100.00;50113.56;5096806;28;19915;-72
2022/06/12 00:21:10;;;;;;;;;;;;;;;-149.78;100.00;50135.06;5096161;28;21133;-72
2022/06/12 00:23:40;;;;;;;;;;;;;;;-149.78;100.00;50172.22;5085339;28;19925;-73
2022/06/12 00:26:06;;;;;;;;;;;;;;;-149.78;100.00;50095.94;5094496;28;19930;-73
2022/06/12 00:28:32;;;;;;;;;;;;;;;-149.78;100.00;50107.69;5104735;28;19920;-73
2022/06/12 00:30:57;;;;;;;;;;;;;;;-149.78;100.00;50127.25;5107058;28;19924;-72
2022/06/12 00:33:23;;;;;;;;;;;;;;;-149.78;100.00;50135.06;5103422;28;19959;-72
2022/06/12 00:35:49;;;;;;;;;;;;;;;-149.78;100.00;50152.66;5104984;28;19928;-72
2022/06/12 00:38:14;;;;;;;;;;;;;;;-149.78;100.00;50107.69;5102205;28;19924;-72
2022/06/12 00:40:40;;;;;;;;;;;;;;;-149.78;100.00;50135.06;5103694;28;19928;-72
2022/06/12 00:43:05;;;;;;;;;;;;;;;-149.78;100.00;50127.25;5103142;28;19942;-72
2022/06/12 00:45:37;;;;;;;;;;;;;;;-149.78;100.00;50107.69;5100554;28;19955;-72
2022/06/12 00:48:06;;;;;;;;;;;;;;;-149.78;100.00;50125.28;5106465;28;20312;-72
2022/06/12 00:50:32;;;;;;;;;;;;;;;-149.78;100.00;50113.56;5102244;28;19981;-72
2022/06/12 00:52:58;;;;;;;;;;;;;;;-149.78;100.00;50115.50;5105640;28;19935;-73
2022/06/12 00:55:36;;;;;;;;;;;;;;;-149.78;100.00;50140.94;5103004;28;19922;-73
2022/06/12 00:58:05;;;;;;;;;;;;;;;-149.78;100.00;50138.97;5106319;28;19920;-73
2022/06/12 01:00:32;;;;;;;;;;;;;;;-149.78;100.00;50109.66;5099709;28;19919;-72
2022/06/12 01:02:59;;;;;;;;;;;;;;;-149.78;100.00;50107.69;5106588;28;19923;-72
2022/06/12 01:08:10;;;;;;;;;;;;;;;-149.78;100.00;50123.34;5108333;28;19916;-73
2022/06/12 01:10:38;;;;;;;;;;;;;;;-149.78;100.00;50144.84;5104424;28;20068;-71
2022/06/12 01:13:06;;;;;;;;;;;;;;;-149.78;100.00;50090.09;5106665;28;19915;-72
2022/06/12 01:15:34;;;;;;;;;;;;;;;-149.78;100.00;50119.41;5102745;28;19981;-73
2022/06/12 01:18:00;;;;;;;;;;;;;;;-149.78;100.00;50146.81;5100295;28;19924;-73
2022/06/12 01:20:28;;;;;;;;;;;;;;;-149.78;100.00;50115.50;5105521;28;19935;-73
2022/06/12 01:23:12;;;;;;;;;;;;;;;-149.78;100.00;50111.59;5101717;28;20007;-73
2022/06/12 01:25:40;;;;;;;;;;;;;;;-149.78;100.00;50131.16;5097163;28;20415;-73
2022/06/12 01:28:10;;;;;;;;;;;;;;;-149.78;100.00;50115.50;5095438;28;19919;-73
2022/06/12 01:30:40;;;;;;;;;;;;;;;-149.78;100.00;50133.09;5097886;28;19923;-73
2022/06/12 01:33:11;;;;;;;;;;;;;;;-149.78;100.00;50088.13;5093599;28;20404;-73
2022/06/12 01:35:46;;;;;;;;;;;;;;;-149.78;100.00;50099.88;5088287;28;20002;-73
2022/06/12 01:38:37;;;;;;;;;;;;;;;-149.78;100.00;50135.06;5096647;28;20022;-72
2022/06/12 01:41:07;;;;;;;;;;;;;;;-149.78;100.00;50131.16;5095738;28;19923;-74
2022/06/12 01:43:33;;;;;;;;;;;;;;;-149.78;100.00;50123.34;5092957;28;19951;-73
2022/06/12 01:46:01;;;;;;;;;;;;;;;-149.78;100.00;50154.63;5095962;28;19934;-73
2022/06/12 01:48:27;;;;;;;;;;;;;;;-149.78;100.00;50115.50;5095390;28;20314;-73
2022/06/12 01:50:52;;;;;;;;;;;;;;;-149.78;100.00;50115.50;5093529;28;19962;-73
2022/06/12 01:53:18;;;;;;;;;;;;;;;-149.78;100.00;50121.38;5096278;28;19931;-73
2022/06/12 01:55:44;;;;;;;;;;;;;;;-149.78;100.00;50111.59;5095886;28;19916;-73
2022/06/12 01:58:10;;;;;;;;;;;;;;;-149.78;100.00;50138.97;5096523;28;19965;-73
2022/06/12 02:00:37;;;;;;;;;;;;;;;-149.78;100.00;50174.19;5094415;28;19998;-72
2022/06/12 02:03:02;;;;;;;;;;;;;;;-149.78;100.00;50119.41;5095881;28;19965;-73
2022/06/12 02:05:34;;;;;;;;;;;;;;;-149.78;100.00;50123.34;5094960;28;19947;-73
2022/06/12 02:08:02;;;;;;;;;;;;;;;-149.78;100.00;50135.06;5094755;28;19923;-73
2022/06/12 02:10:43;;;;;;;;;;;;;;;-149.78;100.00;50138.97;5096527;28;20455;-73
2022/06/12 02:13:15;;;;;;;;;;;;;;;-149.78;100.00;50142.88;5094031;28;19935;-73
2022/06/12 02:15:59;;;;;;;;;;;;;;;-149.78;100.00;50162.44;5096021;28;19942;-73
2022/06/12 02:18:31;;;;;;;;;;;;;;;-149.78;100.00;50131.16;5094636;28;20588;-73
2022/06/12 02:21:03;;;;;;;;;;;;;;;-149.78;100.00;50146.81;5097925;28;20374;-73
2022/06/12 02:23:32;;;;;;;;;;;;;;;-149.78;100.00;50158.53;5096625;28;19970;-73
2022/06/12 02:25:59;;;;;;;;;;;;;;;-149.78;100.00;50148.75;5094072;28;19949;-73
2022/06/12 02:28:29;;;;;;;;;;;;;;;-149.78;100.00;50146.81;5093474;28;19920;-72
2022/06/12 02:30:57;;;;;;;;;;;;;;;-149.78;100.00;50125.28;5094450;28;19928;-73
2022/06/12 02:33:25;;;;;;;;;;;;;;;-149.78;100.00;50164.41;5095132;28;20030;-73
2022/06/12 02:35:53;;;;;;;;;;;;;;;-149.78;100.00;50144.84;5093611;28;20499;-73
2022/06/12 02:38:29;;;;;;;;;;;;;;;-149.78;100.00;50111.59;5096812;28;19919;-72
2022/06/12 02:41:01;;;;;;;;;;;;;;;-149.78;100.00;50140.94;5093624;28;20339;-72
2022/06/12 02:43:30;;;;;;;;;;;;;;;-149.78;100.00;50129.19;5100390;28;19920;-73
2022/06/12 02:46:02;;;;;;;;;;;;;;;-149.78;100.00;50146.81;5099349;28;19923;-72
2022/06/12 02:48:29;;;;;;;;;;;;;;;-149.78;100.00;50133.09;5098899;28;19930;-73
2022/06/12 02:51:00;;;;;;;;;;;;;;;-149.78;100.00;50142.88;5100362;28;20014;-73
2022/06/12 02:53:37;;;;;;;;;;;;;;;-149.78;100.00;50144.84;5099828;28;19931;-73
2022/06/12 02:56:10;;;;;;;;;;;;;;;-149.78;100.00;50150.72;5098997;28;19951;-73
2022/06/12 02:58:55;;;;;;;;;;;;;;;-149.78;100.00;50152.66;5097445;28;19931;-73
2022/06/12 03:01:26;;;;;;;;;;;;;;;-149.78;100.00;50168.31;5097716;28;19924;-73
2022/06/12 03:04:04;;;;;;;;;;;;;;;-149.78;100.00;50166.34;5098522;28;20699;-73
2022/06/12 03:06:30;;;;;;;;;;;;;;;-149.78;100.00;50131.16;5098064;28;19931;-73
2022/06/12 03:08:58;;;;;;;;;;;;;;;-149.78;100.00;50158.53;5100034;28;19928;-74
2022/06/12 03:11:28;;;;;;;;;;;;;;;-149.78;100.00;50146.81;5097091;28;19935;-72
2022/06/12 03:13:55;;;;;;;;;;;;;;;-149.78;100.00;50154.63;5098607;28;20012;-73
2022/06/12 03:16:24;;;;;;;;;;;;;;;-149.78;100.00;50127.25;5098724;28;21439;-73
2022/06/12 03:19:08;;;;;;;;;;;;;;;-149.78;100.00;50154.63;5097528;28;19920;-73
2022/06/12 03:21:41;;;;;;;;;;;;;;;-149.78;100.00;50113.56;5098437;28;19976;-72
2022/06/12 03:24:22;;;;;;;;;;;;;;;-149.78;100.00;50150.72;5096175;28;20038;-73
2022/06/12 03:26:50;;;;;;;;;;;;;;;-149.78;100.00;50178.09;5094737;28;19928;-73
2022/06/12 03:29:19;;;;;;;;;;;;;;;-149.78;100.00;50142.88;5095096;28;20375;-73
2022/06/12 03:32:02;;;;;;;;;;;;;;;-149.78;100.00;50170.25;5096948;28;20018;-72
2022/06/12 03:34:39;;;;;;;;;;;;;;;-149.78;100.00;50142.88;5087753;28;20641;-73
2022/06/12 03:37:08;;;;;;;;;;;;;;;-149.78;100.00;50150.72;5098449;28;19935;-73
2022/06/12 03:39:33;;;;;;;;;;;;;;;-149.78;100.00;50150.72;5096756;28;19927;-73
2022/06/12 03:42:11;;;;;;;;;;;;;;;-149.78;100.00;50174.19;5095961;28;19920;-73
2022/06/12 03:44:48;;;;;;;;;;;;;;;-149.78;100.00;50127.25;5098216;28;19935;-73
2022/06/12 03:47:20;;;;;;;;;;;;;;;-149.78;100.00;50119.41;5096636;28;19924;-73
2022/06/12 03:49:56;;;;;;;;;;;;;;;-149.78;100.00;50140.94;5100385;28;19924;-72
2022/06/12 03:52:52;;;;;;;;;;;;;;;-149.78;100.00;50142.88;5097255;28;20023;-73
2022/06/12 03:55:17;;;;;;;;;;;;;;;-149.78;100.00;50133.09;5096490;28;19923;-73
2022/06/12 03:57:52;;;;;;;;;;;;;;;-149.78;100.00;50158.53;5096148;28;20450;-73
2022/06/12 04:00:18;;;;;;;;;;;;;;;-149.78;100.00;50148.75;5097027;28;20579;-71
2022/06/12 04:02:45;;;;;;;;;;;;;;;-149.78;100.00;50158.53;5096275;28;19980;-73
2022/06/12 04:05:17;;;;;;;;;;;;;;;-149.78;100.00;50162.44;5098109;28;19959;-72
2022/06/12 04:07:46;;;;;;;;;;;;;;;-149.78;100.00;50142.88;5094052;28;20042;-72
2022/06/12 04:10:17;;;;;;;;;;;;;;;-149.78;100.00;50131.16;5097471;28;20287;-73
2022/06/12 04:12:43;;;;;;;;;;;;;;;-149.78;100.00;50164.41;5093650;28;20086;-72
2022/06/12 04:15:17;;;;;;;;;;;;;;;-149.78;100.00;50142.88;5098134;28;20402;-73
2022/06/12 04:17:43;;;;;;;;;;;;;;;-149.78;100.00;50178.09;5094506;28;19922;-73
2022/06/12 04:20:17;;;;;;;;;;;;;;;-149.78;100.00;50166.34;5094066;28;19920;-73
2022/06/12 04:22:55;;;;;;;;;;;;;;;-149.78;100.00;50148.75;5099123;28;20005;-72
2022/06/12 04:25:33;;;;;;;;;;;;;;;-149.78;100.00;50182.00;5096171;28;20260;-73
2022/06/12 04:27:59;;;;;;;;;;;;;;;-149.78;100.00;50160.50;5096073;28;19987;-73
2022/06/12 04:30:27;;;;;;;;;;;;;;;-149.78;100.00;50142.88;5097814;28;20013;-73
2022/06/12 04:33:03;;;;;;;;;;;;;;;-149.78;100.00;50131.16;5097709;28;19977;-73
2022/06/12 04:35:31;;;;;;;;;;;;;;;-149.78;100.00;50189.81;5097984;28;20248;-73
2022/06/12 04:37:57;;;;;;;;;;;;;;;-149.78;100.00;50129.19;5096657;28;20864;-73
2022/06/12 04:40:24;;;;;;;;;;;;;;;-149.78;100.00;50127.25;5095366;28;19928;-73
2022/06/12 04:42:50;;;;;;;;;;;;;;;-149.78;100.00;50158.53;5096469;28;20394;-73
2022/06/12 04:45:16;;;;;;;;;;;;;;;-149.78;100.00;50123.34;5094092;28;19924;-72
2022/06/12 04:47:42;;;;;;;;;;;;;;;-149.78;100.00;50178.09;5096299;28;19928;-73
2022/06/12 04:50:12;;;;;;;;;;;;;;;-149.78;100.00;50125.28;5094566;28;19924;-73
2022/06/12 04:52:38;;;;;;;;;;;;;;;-149.78;100.00;50166.34;5096512;28;20030;-73
2022/06/12 04:55:04;;;;;;;;;;;;;;;-149.78;100.00;50164.41;5094695;28;20417;-73
2022/06/12 04:57:31;;;;;;;;;;;;;;;-149.78;100.00;50115.50;5094660;28;19928;-73
2022/06/12 04:59:57;;;;;;;;;;;;;;;-149.78;100.00;50148.75;5096944;28;19930;-73
2022/06/12 05:02:24;;;;;;;;;;;;;;;-149.78;100.00;50123.34;5096937;28;20440;-73
2022/06/12 05:04:50;;;;;;;;;;;;;;;-149.78;100.00;50131.16;5093920;27;20451;-73
2022/06/12 05:07:16;;;;;;;;;;;;;;;-149.78;100.00;50152.66;5095181;28;19965;-72
2022/06/12 05:09:42;;;;;;;;;;;;;;;-149.78;100.00;50135.06;5095911;28;19924;-72
2022/06/12 05:12:09;;;;;;;;;;;;;;;-149.78;100.00;50115.50;5094722;28;19916;-72
2022/06/12 05:14:35;;;;;;;;;;;;;;;-149.78;100.00;50115.50;5098839;28;19930;-72
2022/06/12 05:17:05;;;;;;;;;;;;;;;-149.78;100.00;50154.63;5104785;28;19916;-72
2022/06/12 05:19:32;;;;;;;;;;;;;;;-149.78;100.00;50119.41;5101963;28;20383;-73
2022/06/12 05:21:58;;;;;;;;;;;;;;;-149.78;100.00;50150.72;5103335;28;19924;-73
2022/06/12 05:24:24;;;;;;;;;;;;;;;-149.78;100.00;50162.44;5096016;28;20435;-73
2022/06/12 05:26:51;;;;;;;;;;;;;;;-149.78;100.00;50158.53;5104743;28;19934;-73
2022/06/12 05:29:28;;;;;;;;;;;;;;;-149.78;100.00;50137.03;5100000;28;19970;-74
2022/06/12 05:31:53;;;;;;;;;;;;;;;-149.78;100.00;50162.44;5103505;28;19927;-74
2022/06/12 05:34:19;;;;;;;;;;;;;;;-149.78;100.00;50146.81;5097210;28;19924;-75
2022/06/12 05:36:45;;;;;;;;;;;;;;;-149.78;100.00;50162.44;5098162;28;19946;-74
2022/06/12 05:39:12;;;;;;;;;;;;;;;-149.78;100.00;50115.50;5100106;28;19938;-74
2022/06/12 05:41:37;;;;;;;;;;;;;;;-149.78;100.00;50150.72;5100539;28;19917;-74
2022/06/12 05:44:03;;;;;;;;;;;;;;;-149.78;100.00;50135.06;5099403;28;19920;-74
2022/06/12 05:46:29;;;;;;;;;;;;;;;-149.78;100.00;50140.94;5102558;28;20042;-74
2022/06/12 05:48:54;;;;;;;;;;;;;;;-149.78;100.00;50113.56;5099255;28;19935;-74
2022/06/12 05:51:20;;;;;;;;;;;;;;;-149.78;100.00;50107.69;5099513;28;20010;-73
2022/06/12 05:53:47;;;;;;;;;;;;;;;-149.78;100.00;50119.41;5100471;28;20394;-74
2022/06/12 05:56:15;;;;;;;;;;;;;;;-149.78;100.00;50119.41;5102131;28;20683;-74
2022/06/12 05:58:41;;;;;;;;;;;;;;;-149.78;100.00;50135.06;5098783;28;19970;-73
2022/06/12 06:01:08;;;;;;;;;;;;;;;-149.78;100.00;50125.28;5098296;28;19927;-75
2022/06/12 06:03:34;;;;;;;;;;;;;;;-149.78;100.00;50174.19;5103281;28;19922;-76
2022/06/12 06:06:00;;;;;;;;;;;;;;;-149.78;100.00;50127.25;5096750;28;19928;-74
2022/06/12 06:08:25;;;;;;;;;;;;;;;-149.78;100.00;50127.25;5096039;28;20051;-74
2022/06/12 06:10:51;;;;;;;;;;;;;;;-149.78;100.00;50111.59;5093991;28;19928;-74
2022/06/12 06:13:17;;;;;;;;;;;;;;;-149.78;100.00;50131.16;5095020;28;19920;-74
2022/06/12 06:15:45;;;;;;;;;;;;;;;-149.78;100.00;50076.41;5099736;28;19970;-74
2022/06/12 06:18:11;;;;;;;;;;;;;;;-149.78;100.00;50131.16;5094603;28;19916;-74
2022/06/12 06:20:38;;;;;;;;;;;;;;;-149.78;100.00;50115.50;5091845;28;19965;-74
2022/06/12 06:23:04;;;;;;;;;;;;;;;-149.78;100.00;50084.22;5089167;28;19919;-74
2022/06/12 06:25:29;;;;;;;;;;;;;;;-149.78;100.00;50092.03;5099804;28;19933;-74
2022/06/12 06:27:56;;;;;;;;;;;;;;;-149.78;100.00;50092.03;5098308;28;19950;-73
2022/06/12 06:30:22;;;;;;;;;;;;;;;-149.78;100.00;50076.41;5094569;28;19927;-74
2022/06/12 06:32:47;;;;;;;;;;;;;;;-149.78;100.00;50088.13;5097780;28;19916;-74
2022/06/12 06:35:13;;;;;;;;;;;;;;;-149.78;100.00;50103.78;5092060;28;19923;-73
2022/06/12 06:37:39;;;;;;;;;;;;;;;-149.78;100.00;50045.09;5098482;28;19908;-74
2022/06/12 06:40:07;;;;;;;;;;;;;;;-149.78;100.00;50045.09;5094167;28;19920;-74
2022/06/12 06:42:32;;;;;;;;;;;;;;;-149.78;100.00;50049.03;5097471;28;19916;-75
2022/06/12 06:47:42;;;;;;;;;;;;;;;-149.78;74.69;50006.00;5083304;28;19923;-75
2022/06/12 06:50:08;;;;;;;;;;;;;;;-149.78;85.95;50006.00;5096489;28;19919;-75
2022/06/12 06:52:34;;;;;;;;;;;;;;;-149.78;86.26;50009.91;5091445;28;19924;-75
2022/06/12 06:55:00;;;;;;;;;;;;;;;-149.78;92.18;50025.56;5090174;28;20382;-75
2022/06/12 06:57:26;;;;;;;;;;;;;;;-149.78;100.00;50058.78;5089804;28;19923;-75
2022/06/12 06:59:52;;;;;;;;;;;;;;;-149.78;100.00;50052.94;5092524;28;19926;-76
2022/06/12 07:02:18;;;;;;;;;;;;;;;-149.78;100.00;50072.50;5098489;28;19969;-74
2022/06/12 07:04:44;;;;;;;;;;;;;;;-149.78;100.00;50072.50;5087887;28;19948;-75
2022/06/12 07:07:10;;;;;;;;;;;;;;;-149.78;100.00;50095.94;5097298;28;20291;-74
2022/06/12 07:09:36;;;;;;;;;;;;;;;-149.78;100.00;50088.13;5096953;28;20027;-74
2022/06/12 07:12:02;;;;;;;;;;;;;;;-149.78;100.00;50115.50;5103998;28;19924;-73
2022/06/12 07:14:29;;;;;;;;;;;;;;;-149.78;100.00;50111.59;5099665;28;19920;-74
2022/06/12 07:16:55;;;;;;;;;;;;;;;-149.78;100.00;50107.69;5095742;28;19994;-74
2022/06/12 07:19:20;;;;;;;;;;;;;;;-149.78;100.00;50127.25;5086508;28;20430;-74
2022/06/12 07:21:46;;;;;;;;;;;;;;;-149.78;100.00;50088.13;5087539;28;19981;-73
2022/06/12 07:24:12;;;;;;;;;;;;;;;-149.78;100.00;50076.41;5102003;28;19968;-74
2022/06/12 07:26:39;;;;;;;;;;;;;;;-149.78;100.00;50068.56;5103235;28;19920;-74
2022/06/12 07:29:05;;;;;;;;;;;;;;;-149.78;100.00;50088.13;5099667;28;19926;-73
2022/06/12 07:31:31;;;;;;;;;;;;;;;-149.78;100.00;50119.41;5097931;28;19923;-73
2022/06/12 07:33:56;;;;;;;;;;;;;;;-149.78;100.00;50103.78;5103051;28;19965;-74
2022/06/12 07:36:22;;;;;;;;;;;;;;;-149.78;100.00;50111.59;5103455;28;19919;-76
2022/06/12 07:38:49;;;;;;;;;;;;;;;-149.78;100.00;50131.16;5098635;28;19927;-77
2022/06/12 07:41:15;;;;;;;;;;;;;;;-149.78;100.00;50127.25;5103114;28;19938;-79
2022/06/12 07:43:43;;;;;;;;;;;;;;;-149.78;100.00;50101.81;5104204;28;20359;-72
2022/06/12 07:46:10;;;;;;;;;;;;;;;-149.78;100.00;50109.66;5104852;28;19916;-74
2022/06/12 07:48:36;;;;;;;;;;;;;;;-149.78;100.00;50119.41;5098162;28;19920;-72
2022/06/12 07:51:03;;;;;;;;;;;;;;;-149.78;100.00;50109.66;5095891;28;19923;-74
2022/06/12 07:53:30;;;;;;;;;;;;;;;-149.78;100.00;50115.50;5100716;28;20450;-74
2022/06/12 07:55:57;;;;;;;;;;;;;;;-149.78;100.00;50099.88;5101145;28;19923;-75
2022/06/12 07:58:26;;;;;;;;;;;;;;;-149.78;100.00;50099.88;5094570;28;20015;-77
2022/06/12 08:00:53;;;;;;;;;;;;;;;-149.78;100.00;50115.50;5100154;28;19924;-77
2022/06/12 08:03:19;;;;;;;;;;;;;;;-149.78;100.00;50111.59;5101988;28;20003;-77
2022/06/12 08:05:44;;;;;;;;;;;;;;;-149.78;100.00;50092.03;5102630;28;19999;-76
2022/06/12 08:08:10;;;;;;;;;;;;;;;-149.78;100.00;50131.16;5104262;28;20018;-77
2022/06/12 08:10:35;;;;;;;;;;;;;;;-149.78;100.00;50135.06;5092298;28;19986;-76
2022/06/12 08:13:06;;;;;;;;;;;;;;;-149.78;100.00;50084.22;5095987;28;20799;-77
2022/06/12 08:15:32;;;;;;;;;;;;;;;-149.78;90.00;50041.19;5103767;28;19943;-77
2022/06/12 08:17:58;;;;;;;;;;;;;;;-149.78;65.71;50015.78;5099406;28;19963;-77
2022/06/12 08:20:24;;;;;;;;;;;;;;;-149.78;64.18;50013.81;5096903;28;19962;-77
2022/06/12 08:23:01;;;;;;;;;;;;;;;-149.78;67.96;50027.50;5100038;28;19964;-78
2022/06/12 08:25:28;;;;;;;;;;;;;;;-149.78;74.22;50033.38;5095166;28;19928;-73
2022/06/12 08:27:54;;;;;;;;;;;;;;;-149.78;68.51;50037.28;5092411;28;19925;-74
2022/06/12 08:30:20;;;;;;;;;;;;;;;-149.78;74.75;50004.03;5095450;28;19927;-74
2022/06/12 08:32:47;;;;;;;;;;;;;;;-149.78;83.95;50084.22;5071249;28;19924;-74
2022/06/12 08:35:16;;;;;;;;;;;;;;;-149.78;98.08;50086.19;5091737;28;19920;-74
2022/06/12 08:37:42;;;;;;;;;;;;;;;-149.78;95.55;50088.13;5093397;28;19973;-74
2022/06/12 08:40:15;;;;;;;;;;;;;;;-149.78;86.24;49986.44;5097294;28;19930;-74
2022/06/12 08:42:46;;;;;;;;;;;;;;;-149.78;58.95;49947.34;5091804;28;20471;-74
2022/06/12 08:45:15;;;;;;;;;;;;;;;-149.78;43.94;49902.34;5094349;28;19939;-74
2022/06/12 08:47:40;;;;;;;;;;;;;;;-149.78;39.89;49931.69;5084670;28;19944;-73
2022/06/12 08:50:11;;;;;;;;;;;;;;;-149.78;42.82;49904.31;5093594;28;19924;-74
2022/06/12 08:52:49;;;;;;;;;;;;;;;-149.78;48.23;49986.44;5095793;28;20764;-74
2022/06/12 08:55:19;;;;;;;;;;;;;;;-149.78;50.32;49998.19;5091904;28;19924;-73
2022/06/12 08:57:47;;;;;;;;;;;;;;;-149.78;55.25;50017.72;5095083;28;19926;-73
2022/06/12 09:00:15;;;;;;;;;;;;;;;-149.78;54.03;50037.28;5093939;28;19974;-73
2022/06/12 09:02:42;;;;;;;;;;;;;;;-149.78;61.32;50090.09;5096663;28;19923;-73
2022/06/12 09:05:11;;;;;;;;;;;;;;;-149.78;62.37;50072.50;5094211;28;19923;-73
2022/06/12 09:07:36;;;;;;;;;;;;;;;-149.78;66.47;50084.22;5097127;28;19946;-73
2022/06/12 09:10:22;;;;;;;;;;;;;;;-149.78;62.26;50050.97;5095982;28;20394;-73
2022/06/12 09:12:51;;;;;;;;;;;;;;;-149.78;57.84;50025.56;5095292;28;19932;-74
2022/06/12 09:15:25;;;;;;;;;;;;;;;-149.78;48.31;49939.50;5097077;28;19949;-74
2022/06/12 09:18:05;;;;;;;;;;;;;;;-149.78;44.40;49931.69;5097299;28;19920;-74
2022/06/12 09:20:32;;;;;;;;;;;;;;;-149.78;38.41;49896.50;5096281;28;20279;-74
2022/06/12 09:23:12;;;;;;;;;;;;;;;-149.78;37.21;49878.88;5096100;28;19965;-74
2022/06/12 09:25:40;;;;;;;;;;;;;;;-149.78;34.84;49837.81;5096605;28;19970;-74
2022/06/12 09:28:13;;;;;;;;;;;;;;;-149.78;35.12;49865.19;5097456;28;19924;-74
2022/06/12 09:30:41;;;;;;;;;;;;;;;-149.78;37.29;49935.59;5096240;28;19932;-74
2022/06/12 09:33:15;;;;;;;;;;;;;;;-149.78;39.83;49959.06;5094048;28;19958;-74
2022/06/12 09:35:52;;;;;;;;;;;;;;;-149.78;44.40;49990.34;5093886;28;19930;-74
2022/06/12 09:38:25;;;;;;;;;;;;;;;-149.78;48.96;49994.25;5097018;28;20400;-74
2022/06/12 09:40:53;;;;;;;;;;;;;;;-149.78;47.40;49980.56;5095435;28;20010;-73
2022/06/12 09:43:24;;;;;;;;;;;;;;;-149.78;48.49;49992.31;5095488;28;19969;-74
2022/06/12 09:45:50;;;;;;;;;;;;;;;-149.78;48.90;49998.19;5096205;28;19922;-73
2022/06/12 09:48:16;;;;;;;;;;;;;;;-149.78;47.81;49959.06;5095618;28;19923;-74
2022/06/12 09:51:00;;;;;;;;;;;;;;;-149.78;44.19;49912.13;5093779;28;20308;-74
2022/06/12 09:53:26;;;;;;;;;;;;;;;-149.78;39.38;49908.22;5097362;28;20657;-74
2022/06/12 09:55:55;;;;;;;;;;;;;;;-149.78;36.72;49888.66;5094128;28;19924;-74
2022/06/12 09:58:26;;;;;;;;;;;;;;;-149.78;34.80;49869.13;5097193;28;20425;-74
2022/06/12 10:01:04;;;;;;;;;;;;;;;-149.78;36.47;49873.03;5094014;28;19923;-75
2022/06/12 10:03:50;;;;;;;;;;;;;;;-149.78;34.57;49869.13;5095940;28;20279;-74
2022/06/12 10:06:24;;;;;;;;;;;;;;;-149.78;35.66;49857.38;5092014;28;20481;-74
2022/06/12 10:08:57;;;;;;;;;;;;;;;-149.78;36.10;49898.44;5096289;28;20679;-73
2022/06/12 10:11:30;;;;;;;;;;;;;;;-149.78;37.79;49919.94;5095841;28;20329;-74
2022/06/12 10:14:02;;;;;;;;;;;;;;;-149.78;39.27;49896.50;5095582;28;19927;-74
2022/06/12 10:16:34;;;;;;;;;;;;;;;-149.78;39.39;49945.38;5093760;28;20704;-74
2022/06/12 10:19:06;;;;;;;;;;;;;;;-149.78;40.14;49919.94;5096513;28;19920;-74
2022/06/12 10:21:34;;;;;;;;;;;;;;;-149.78;38.45;49970.78;5091808;28;19934;-74
2022/06/12 10:24:01;;;;;;;;;;;;;;;-149.78;39.96;49959.06;5096807;28;19949;-74
2022/06/12 10:26:29;;;;;;;;;;;;;;;-149.78;40.68;49916.03;5094979;28;19927;-74
2022/06/12 10:29:14;;;;;;;;;;;;;;;-149.78;40.28;49949.28;5093868;28;20031;-74
2022/06/12 10:32:06;;;;;;;;;;;;;;;-149.78;39.06;49939.50;5095710;28;20394;-75
2022/06/12 10:34:32;;;;;;;;;;;;;;;-149.78;38.68;49953.19;5095250;28;20011;-74
2022/06/12 10:37:08;;;;;;;;;;;;;;;-149.78;40.39;49966.88;5096939;28;19923;-74
2022/06/12 10:39:35;;;;;;;;;;;;;;;-149.78;41.87;49972.75;5094265;28;20049;-74
2022/06/12 10:42:02;;;;;;;;;;;;;;;-149.78;42.58;49943.41;5096041;28;19953;-74
2022/06/12 10:44:30;;;;;;;;;;;;;;;-149.78;43.76;49927.78;5092064;28;19920;-74
2022/06/12 10:47:06;;;;;;;;;;;;;;;-149.78;43.24;49939.50;5095407;28;20290;-74
2022/06/12 10:49:32;;;;;;;;;;;;;;;-149.78;39.07;49943.41;5094266;28;19984;-74
2022/06/12 10:52:13;;;;;;;;;;;;;;;-149.78;41.27;49951.25;5096925;28;20030;-75
2022/06/12 10:54:38;;;;;;;;;;;;;;;-149.78;41.50;49931.69;5096260;28;19922;-75
2022/06/12 10:57:19;;;;;;;;;;;;;;;-149.78;39.46;49982.53;5095584;28;19924;-74
2022/06/12 10:59:53;;;;;;;;;;;;;;;-149.78;43.10;49959.06;5089653;28;19917;-74
2022/06/12 11:02:21;;;;;;;;;;;;;;;-149.78;39.79;49959.06;5091534;28;19938;-74
2022/06/12 11:05:05;;;;;;;;;;;;;;;-149.78;38.30;49974.72;5093776;28;20386;-74
2022/06/12 11:07:55;;;;;;;;;;;;;;;-149.78;39.82;49972.75;5094574;28;19923;-75
2022/06/12 11:10:43;;;;;;;;;;;;;;;-149.78;40.66;49962.97;5085056;28;19993;-74
2022/06/12 11:13:25;;;;;;;;;;;;;;;-149.78;39.79;49990.34;5089351;28;19959;-73
2022/06/12 11:15:57;;;;;;;;;;;;;;;-149.78;39.13;49916.03;5093815;28;19927;-73
2022/06/12 11:18:31;;;;;;;;;;;;;;;-149.78;40.08;49931.69;5092705;28;19926;-74
2022/06/12 11:21:00;;;;;;;;;;;;;;;-149.78;40.33;49939.50;5091714;28;19934;-74
2022/06/12 11:23:26;;;;;;;;;;;;;;;-149.78;38.33;49904.31;5093804;28;19962;-74
2022/06/12 11:26:04;;;;;;;;;;;;;;;-149.78;36.40;49947.34;5094566;28;19967;-74
2022/06/12 11:28:48;;;;;;;;;;;;;;;-149.78;36.28;49939.50;5094634;28;20015;-74
2022/06/12 11:31:33;;;;;;;;;;;;;;;-149.78;35.74;49951.25;5096781;28;19935;-74
2022/06/12 11:34:12;;;;;;;;;;;;;;;-149.78;38.92;49959.06;5096379;28;19924;-74
2022/06/12 11:36:38;;;;;;;;;;;;;;;-149.78;36.42;49916.03;5096513;28;19928;-75
2022/06/12 11:39:07;;;;;;;;;;;;;;;-149.78;36.63;49914.09;5096299;28;19924;-75
2022/06/12 11:41:51;;;;;;;;;;;;;;;-149.78;37.08;49939.50;5097946;28;19924;-74
2022/06/12 11:44:24;;;;;;;;;;;;;;;-149.78;35.27;49923.88;5091289;28;19924;-74
2022/06/12 11:47:17;;;;;;;;;;;;;;;-149.78;35.96;49951.25;5097384;28;19923;-74
2022/06/12 11:49:52;;;;;;;;;;;;;;;-149.78;37.30;49923.88;5088432;28;19924;-75
2022/06/12 11:52:25;;;;;;;;;;;;;;;-149.78;37.46;49974.72;5094802;28;19954;-73
2022/06/12 11:55:00;;;;;;;;;;;;;;;-149.78;37.81;49990.34;5095376;28;20469;-74
2022/06/12 11:57:26;;;;;;;;;;;;;;;-149.78;37.57;49947.34;5094949;28;19924;-73
2022/06/12 11:59:51;;;;;;;;;;;;;;;-149.78;38.15;49955.16;5092635;28;19920;-74
2022/06/12 12:02:35;;;;;;;;;;;;;;;-149.78;37.76;49964.94;5096269;28;19924;-72
2022/06/12 12:05:10;;;;;;;;;;;;;;;-149.78;38.51;49988.41;5094418;28;20774;-74
2022/06/12 12:07:38;;;;;;;;;;;;;;;-149.78;39.83;49996.22;5094024;28;19971;-74
2022/06/12 12:10:30;;;;;;;;;;;;;;;-149.78;38.03;49970.78;5092474;28;19924;-73
2022/06/12 12:13:01;;;;;;;;;;;;;;;-149.78;37.84;49972.75;5095164;28;19962;-73
2022/06/12 12:15:30;;;;;;;;;;;;;;;-149.78;37.99;49957.09;5095234;28;19924;-73
2022/06/12 12:17:57;;;;;;;;;;;;;;;-149.78;38.71;49962.97;5096808;28;20378;-73
2022/06/12 12:20:28;;;;;;;;;;;;;;;-149.78;38.04;49978.63;5094524;28;19920;-73
2022/06/12 12:22:56;;;;;;;;;;;;;;;-149.78;38.39;49970.78;5094260;28;19934;-73
2022/06/12 12:25:40;;;;;;;;;;;;;;;-149.78;39.04;49998.19;5094629;28;19916;-72
2022/06/12 12:28:18;;;;;;;;;;;;;;;-149.78;38.46;49970.78;5092639;28;21073;-74
2022/06/12 12:30:45;;;;;;;;;;;;;;;-149.78;37.16;49982.53;5091235;28;20335;-74
2022/06/12 12:33:17;;;;;;;;;;;;;;;-149.78;37.91;49927.78;5094077;28;20750;-74
2022/06/12 12:41:19;;;;;;;;;;;;;;;-149.78;39.33;49990.34;5094272;28;20003;-74
2022/06/12 12:43:49;;;;;;;;;;;;;;;-149.78;39.64;49974.72;5093854;28;19964;-75
2022/06/12 12:46:15;;;;;;;;;;;;;;;-149.78;38.71;49970.78;5096361;28;19924;-75